createdAt,value
2018-09-21T00:00:37.158Z,18.80
2018-09-21T00:03:05.575Z,18.70
2018-09-21T00:05:33.969Z,18.60
2018-09-21T00:08:02.468Z,18.60
2018-09-21T00:10:30.912Z,18.60
2018-09-21T00:12:59.281Z,18.60
2018-09-21T00:15:27.841Z,18.60
2018-09-21T00:17:56.248Z,18.50
2018-09-21T00:20:24.633Z,18.50
2018-09-21T00:22:53.085Z,18.50
2018-09-21T00:25:21.650Z,18.50
2018-09-21T00:27:50.054Z,18.50
2018-09-21T00:30:18.514Z,18.50
2018-09-21T00:32:46.939Z,18.50
2018-09-21T00:35:15.333Z,18.50
2018-09-21T00:37:43.777Z,18.50
2018-09-21T00:40:12.346Z,18.50
2018-09-21T00:42:40.803Z,18.50
2018-09-21T00:45:09.317Z,18.50
2018-09-21T00:47:37.690Z,18.50
2018-09-21T00:50:06.137Z,18.50
2018-09-21T00:52:34.682Z,18.50
2018-09-21T00:55:03.112Z,18.50
2018-09-21T00:57:31.476Z,18.50
2018-09-21T00:59:59.936Z,18.50
2018-09-21T01:02:28.317Z,18.50
2018-09-21T01:04:56.680Z,18.40
2018-09-21T01:07:25.124Z,18.40
2018-09-21T01:09:53.543Z,18.40
2018-09-21T01:12:21.937Z,18.40
2018-09-21T01:14:50.389Z,18.40
2018-09-21T01:17:18.804Z,18.40
2018-09-21T01:19:47.198Z,18.40
2018-09-21T01:22:15.654Z,18.40
2018-09-21T01:24:44.049Z,18.30
2018-09-21T01:27:15.983Z,18.30
2018-09-21T01:29:45.109Z,18.30
2018-09-21T01:32:13.790Z,18.30
2018-09-21T01:34:42.338Z,18.30
2018-09-21T01:37:11.075Z,18.30
2018-09-21T01:39:39.564Z,18.30
2018-09-21T01:42:08.313Z,18.30
2018-09-21T01:44:36.757Z,18.30
2018-09-21T01:47:05.199Z,18.40
2018-09-21T01:49:33.661Z,18.40
2018-09-21T01:52:02.154Z,18.40
2018-09-21T01:54:30.570Z,18.40
2018-09-21T01:56:59.029Z,18.50
2018-09-21T01:59:27.905Z,18.50
2018-09-21T02:01:56.318Z,18.50
2018-09-21T02:04:30.129Z,18.60
2018-09-21T02:06:58.547Z,18.60
2018-09-21T02:09:26.988Z,18.60
2018-09-21T02:11:55.457Z,18.60
2018-09-21T02:14:23.870Z,18.60
2018-09-21T02:16:52.542Z,18.70
2018-09-21T02:19:21.595Z,18.70
2018-09-21T02:21:50.425Z,18.70
2018-09-21T02:24:20.018Z,18.70
2018-09-21T02:26:48.561Z,18.70
2018-09-21T02:29:17.001Z,18.70
2018-09-21T02:31:45.516Z,18.70
2018-09-21T02:34:13.970Z,18.70
2018-09-21T02:36:43.422Z,18.70
2018-09-21T02:39:11.817Z,18.70
2018-09-21T02:41:40.241Z,18.70
2018-09-21T02:44:08.684Z,18.70
2018-09-21T02:46:37.308Z,18.80
2018-09-21T02:49:05.784Z,18.80
2018-09-21T02:51:34.430Z,18.90
2018-09-21T02:54:02.800Z,18.90
2018-09-21T02:56:31.296Z,18.90
2018-09-21T02:58:59.762Z,18.90
2018-09-21T03:01:29.070Z,18.80
2018-09-21T03:03:57.497Z,18.80
2018-09-21T03:06:25.957Z,18.70
2018-09-21T03:08:54.356Z,18.70
2018-09-21T03:11:22.815Z,18.70
2018-09-21T03:13:51.232Z,18.60
2018-09-21T03:16:19.700Z,18.50
2018-09-21T03:18:48.210Z,18.50
2018-09-21T03:21:16.607Z,18.40
2018-09-21T03:23:45.045Z,18.40
2018-09-21T03:26:13.517Z,18.40
2018-09-21T03:28:41.936Z,18.40
2018-09-21T03:31:10.466Z,18.40
2018-09-21T03:33:38.881Z,18.40
2018-09-21T03:36:07.318Z,18.50
2018-09-21T03:38:35.737Z,18.50
2018-09-21T03:41:04.216Z,18.50
2018-09-21T03:43:32.630Z,18.60
2018-09-21T03:46:01.031Z,18.60
2018-09-21T03:48:29.699Z,18.60
2018-09-21T03:50:58.198Z,18.60
2018-09-21T03:53:26.601Z,18.70
2018-09-21T03:55:55.033Z,18.70
2018-09-21T03:58:23.413Z,18.70
2018-09-21T04:00:51.813Z,18.80
2018-09-21T04:03:20.261Z,18.80
2018-09-21T04:05:48.641Z,18.90
2018-09-21T04:08:17.065Z,18.90
2018-09-21T04:10:45.534Z,19.00
2018-09-21T04:13:13.945Z,19.00
2018-09-21T04:15:42.311Z,19.10
2018-09-21T04:18:10.759Z,19.10
2018-09-21T04:20:39.157Z,19.20
2018-09-21T04:23:07.628Z,19.20
2018-09-21T04:25:36.146Z,19.20
2018-09-21T04:28:04.551Z,19.30
2018-09-21T04:30:33.051Z,19.20
2018-09-21T04:33:02.272Z,19.20
2018-09-21T04:35:30.661Z,19.20
2018-09-21T04:37:59.039Z,19.20
2018-09-21T04:40:27.473Z,19.20
2018-09-21T04:42:56.173Z,19.10
2018-09-21T04:45:24.594Z,19.10
2018-09-21T04:47:53.045Z,19.10
2018-09-21T04:50:28.134Z,19.10
2018-09-21T04:52:56.586Z,19.10
2018-09-21T04:55:25.041Z,19.10
2018-09-21T04:57:53.430Z,19.10
2018-09-21T05:00:21.835Z,19.10
2018-09-21T05:02:50.281Z,19.10
2018-09-21T05:05:18.689Z,19.10
2018-09-21T05:07:47.181Z,19.10
2018-09-21T05:10:15.582Z,19.10
2018-09-21T05:12:43.977Z,19.10
2018-09-21T05:15:12.477Z,19.10
2018-09-21T05:17:40.980Z,19.20
2018-09-21T05:20:09.550Z,19.30
2018-09-21T05:22:38.472Z,19.40
2018-09-21T05:25:07.043Z,19.40
2018-09-21T05:27:35.538Z,19.40
2018-09-21T05:30:04.111Z,19.40
2018-09-21T05:32:32.537Z,19.50
2018-09-21T05:35:00.944Z,19.50
2018-09-21T05:37:29.434Z,19.50
2018-09-21T05:39:57.861Z,19.50
2018-09-21T05:42:26.270Z,19.50
2018-09-21T05:44:54.762Z,19.50
2018-09-21T05:47:23.198Z,19.60
2018-09-21T05:49:51.654Z,19.70
2018-09-21T05:52:20.184Z,19.70
2018-09-21T05:54:49.255Z,19.70
2018-09-21T05:57:17.695Z,19.70
2018-09-21T05:59:46.164Z,19.80
2018-09-21T06:02:14.783Z,19.90
2018-09-21T06:04:43.153Z,20.00
2018-09-21T06:07:11.660Z,20.00
2018-09-21T06:09:40.071Z,20.10
2018-09-21T06:12:08.526Z,20.20
2018-09-21T06:14:37.002Z,20.20
2018-09-21T06:17:05.589Z,20.30
2018-09-21T06:19:34.010Z,20.40
2018-09-21T06:22:03.267Z,20.50
2018-09-21T06:24:31.666Z,20.70
2018-09-21T06:27:00.082Z,20.80
2018-09-21T06:29:28.499Z,21.00
2018-09-21T06:31:56.959Z,21.20
2018-09-21T06:34:25.327Z,21.20
2018-09-21T06:36:53.755Z,21.20
2018-09-21T06:39:22.186Z,21.10
2018-09-21T06:41:50.629Z,21.10
2018-09-21T06:44:19.107Z,21.00
2018-09-21T06:46:47.538Z,21.00
2018-09-21T06:49:16.036Z,21.10
2018-09-21T06:51:44.490Z,21.10
2018-09-21T06:54:12.909Z,21.20
2018-09-21T06:56:41.282Z,21.30
2018-09-21T06:59:09.704Z,21.30
2018-09-21T07:01:38.287Z,21.40
2018-09-21T07:04:06.940Z,21.40
2018-09-21T07:06:35.434Z,21.40
2018-09-21T07:09:05.149Z,21.40
2018-09-21T07:11:33.537Z,21.50
2018-09-21T07:14:01.990Z,21.50
2018-09-21T07:16:31.193Z,21.50
2018-09-21T07:18:59.580Z,21.50
2018-09-21T07:21:28.014Z,21.50
2018-09-21T07:23:56.433Z,21.50
2018-09-21T07:26:24.793Z,21.60
2018-09-21T07:28:53.217Z,21.60
2018-09-21T07:31:21.757Z,21.70
2018-09-21T07:33:50.045Z,21.80
2018-09-21T07:36:18.465Z,21.90
2018-09-21T07:38:46.865Z,22.00
2018-09-21T07:41:15.325Z,22.20
2018-09-21T07:43:43.767Z,22.30
2018-09-21T07:46:12.130Z,22.50
2018-09-21T07:48:40.534Z,22.60
2018-09-21T07:51:09.235Z,22.70
2018-09-21T07:53:37.605Z,22.80
2018-09-21T07:56:06.033Z,22.80
2018-09-21T07:58:34.657Z,22.90
2018-09-21T08:01:03.453Z,22.90
2018-09-21T08:03:31.912Z,22.90
2018-09-21T08:06:00.357Z,23.00
2018-09-21T08:08:28.741Z,23.00
2018-09-21T08:10:57.137Z,23.00
2018-09-21T08:13:25.564Z,23.00
2018-09-21T08:15:53.935Z,23.00
2018-09-21T08:18:22.377Z,23.00
2018-09-21T08:20:50.869Z,22.90
2018-09-21T08:23:19.246Z,22.90
2018-09-21T08:25:47.622Z,22.80
2018-09-21T08:28:16.094Z,22.80
2018-09-21T08:30:44.471Z,22.80
2018-09-21T08:33:12.891Z,22.80
2018-09-21T08:35:41.360Z,22.90
2018-09-21T08:38:09.813Z,22.90
2018-09-21T08:40:38.214Z,22.90
2018-09-21T08:43:06.800Z,23.00
2018-09-21T08:45:35.188Z,23.00
2018-09-21T08:48:03.729Z,23.00
2018-09-21T08:50:32.186Z,23.10
2018-09-21T08:53:00.572Z,23.10
2018-09-21T08:55:28.995Z,23.10
2018-09-21T08:57:57.435Z,23.20
2018-09-21T09:00:25.857Z,23.20
2018-09-21T09:02:54.279Z,23.20
2018-09-21T09:05:25.158Z,23.20
2018-09-21T09:07:53.578Z,23.20
2018-09-21T09:10:21.974Z,23.20
2018-09-21T09:12:50.769Z,23.20
2018-09-21T09:15:19.202Z,23.30
2018-09-21T09:17:47.629Z,23.30
2018-09-21T09:20:16.084Z,23.30
2018-09-21T09:22:44.514Z,23.30
2018-09-21T09:25:12.894Z,23.30
2018-09-21T09:27:41.347Z,23.30
2018-09-21T09:30:09.825Z,23.20
2018-09-21T09:32:38.177Z,23.30
2018-09-21T09:35:06.777Z,23.30
2018-09-21T09:37:35.168Z,23.30
2018-09-21T09:40:04.327Z,23.30
2018-09-21T09:42:32.876Z,23.30
2018-09-21T09:45:01.265Z,23.20
2018-09-21T09:47:29.678Z,23.20
2018-09-21T09:49:58.202Z,23.00
2018-09-21T09:52:26.602Z,22.90
2018-09-21T09:54:55.027Z,22.80
2018-09-21T09:57:23.487Z,22.70
2018-09-21T09:59:51.871Z,22.60
2018-09-21T10:02:20.237Z,22.30
2018-09-21T10:04:48.710Z,22.20
2018-09-21T10:07:17.117Z,22.10
2018-09-21T10:09:45.517Z,22.00
2018-09-21T10:12:13.985Z,21.90
2018-09-21T10:14:42.375Z,21.90
2018-09-21T10:17:10.769Z,21.90
2018-09-21T10:19:39.246Z,21.90
2018-09-21T10:22:07.706Z,21.80
2018-09-21T10:24:36.255Z,21.70
2018-09-21T10:27:05.322Z,21.70
2018-09-21T10:29:33.694Z,21.60
2018-09-21T10:32:02.116Z,21.50
2018-09-21T10:34:30.640Z,21.60
2018-09-21T10:36:59.125Z,21.60
2018-09-21T10:39:27.584Z,21.50
2018-09-21T10:41:56.038Z,21.50
2018-09-21T10:44:24.473Z,21.50
2018-09-21T10:46:52.906Z,21.40
2018-09-21T10:49:21.385Z,21.40
2018-09-21T10:51:49.847Z,21.30
2018-09-21T10:54:18.245Z,21.10
2018-09-21T10:56:46.689Z,20.50
2018-09-21T10:59:15.086Z,19.70
2018-09-21T11:01:43.510Z,18.90
2018-09-21T11:04:11.978Z,18.20
2018-09-21T11:06:40.409Z,17.80
2018-09-21T11:09:10.333Z,17.50
2018-09-21T11:11:39.069Z,17.20
2018-09-21T11:14:07.480Z,17.00
2018-09-21T11:16:36.394Z,16.70
2018-09-21T11:19:05.623Z,16.60
2018-09-21T11:21:34.007Z,16.40
2018-09-21T11:24:02.434Z,16.30
2018-09-21T11:26:31.061Z,16.20
2018-09-21T11:28:59.459Z,16.00
2018-09-21T11:31:27.837Z,15.90
2018-09-21T11:33:56.254Z,15.80
2018-09-21T11:36:24.638Z,15.80
2018-09-21T11:38:53.137Z,15.80
2018-09-21T11:41:21.576Z,15.80
2018-09-21T11:43:49.945Z,15.90
2018-09-21T11:46:18.324Z,16.00
2018-09-21T11:48:47.126Z,16.20
2018-09-21T11:51:15.525Z,16.30
2018-09-21T11:53:43.922Z,16.30
2018-09-21T11:56:12.375Z,16.30
2018-09-21T11:58:40.766Z,16.30
2018-09-21T12:01:09.157Z,16.20
2018-09-21T12:03:37.635Z,16.10
2018-09-21T12:06:07.117Z,16.10
2018-09-21T12:08:37.902Z,16.20
2018-09-21T12:11:06.542Z,16.30
2018-09-21T12:13:35.341Z,16.40
2018-09-21T12:16:04.115Z,16.60
2018-09-21T12:18:32.493Z,16.90
2018-09-21T12:21:00.949Z,17.00
2018-09-21T12:23:29.379Z,17.20
2018-09-21T12:25:57.765Z,17.30
2018-09-21T12:28:26.165Z,17.40
2018-09-21T12:30:54.625Z,17.40
2018-09-21T12:33:23.066Z,17.40
2018-09-21T12:35:51.762Z,17.40
2018-09-21T12:38:20.229Z,17.50
2018-09-21T12:40:48.626Z,17.50
2018-09-21T12:43:17.041Z,17.40
2018-09-21T12:45:50.645Z,17.40
2018-09-21T12:48:19.086Z,17.20
2018-09-21T12:50:47.518Z,17.20
2018-09-21T12:53:15.953Z,17.10
2018-09-21T12:55:44.414Z,17.10
2018-09-21T12:58:12.887Z,17.00
2018-09-21T13:00:46.677Z,16.80
2018-09-21T13:03:15.044Z,16.80
2018-09-21T13:05:43.467Z,16.80
2018-09-21T13:08:12.009Z,16.80
2018-09-21T13:10:40.413Z,16.80
2018-09-21T13:13:08.834Z,16.90
2018-09-21T13:15:37.260Z,16.90
2018-09-21T13:18:06.313Z,16.90
2018-09-21T13:20:34.719Z,16.80
2018-09-21T13:23:03.169Z,16.70
2018-09-21T13:25:31.622Z,16.70
2018-09-21T13:28:00.056Z,16.80
2018-09-21T13:30:28.592Z,16.70
2018-09-21T13:32:56.985Z,16.70
2018-09-21T13:35:25.398Z,16.70
2018-09-21T13:37:53.865Z,16.60
2018-09-21T13:40:22.261Z,16.70
2018-09-21T13:42:50.694Z,16.70
2018-09-21T13:45:19.515Z,16.80
2018-09-21T13:47:47.905Z,16.80
2018-09-21T13:50:16.313Z,16.70
2018-09-21T13:52:44.775Z,16.70
2018-09-21T13:55:13.217Z,16.80
2018-09-21T13:57:41.637Z,16.80
2018-09-21T14:00:11.491Z,16.80
2018-09-21T14:02:40.441Z,16.80
2018-09-21T14:05:08.890Z,16.80
2018-09-21T14:07:37.383Z,16.80
2018-09-21T14:10:06.490Z,16.80
2018-09-21T14:12:34.989Z,16.90
2018-09-21T14:15:04.553Z,16.90
2018-09-21T14:17:33.290Z,16.90
2018-09-21T14:20:02.910Z,16.90
2018-09-21T14:22:31.429Z,16.80
2018-09-21T14:24:59.895Z,16.80
2018-09-21T14:27:28.389Z,16.80
2018-09-21T14:29:56.905Z,16.80
2018-09-21T14:32:25.441Z,16.90
2018-09-21T14:34:53.894Z,16.90
2018-09-21T14:37:22.398Z,16.90
2018-09-21T14:39:50.847Z,17.00
2018-09-21T14:42:19.241Z,16.90
2018-09-21T14:44:47.745Z,16.90
2018-09-21T14:47:16.206Z,16.90
2018-09-21T14:49:44.653Z,16.80
2018-09-21T14:52:13.134Z,16.70
2018-09-21T14:54:42.237Z,16.70
2018-09-21T14:57:10.861Z,16.70
2018-09-21T14:59:39.318Z,16.70
2018-09-21T15:02:08.079Z,16.70
2018-09-21T15:04:39.275Z,16.70
2018-09-21T15:07:07.810Z,16.70
2018-09-21T15:09:36.368Z,16.70
2018-09-21T15:12:05.056Z,16.70
2018-09-21T15:14:33.799Z,16.70
2018-09-21T15:17:02.315Z,16.80
2018-09-21T15:19:30.767Z,16.90
2018-09-21T15:21:59.280Z,16.90
2018-09-21T15:24:27.742Z,17.00
2018-09-21T15:26:56.243Z,17.10
2018-09-21T15:29:24.710Z,17.10
2018-09-21T15:31:53.215Z,17.20
2018-09-21T15:34:22.036Z,17.20
2018-09-21T15:36:50.700Z,17.10
2018-09-21T15:39:21.301Z,17.10
2018-09-21T15:41:49.803Z,16.90
2018-09-21T15:44:18.275Z,16.70
2018-09-21T15:46:46.755Z,16.50
2018-09-21T15:49:15.337Z,16.60
2018-09-21T15:51:43.817Z,16.50
2018-09-21T15:54:12.541Z,16.40
2018-09-21T15:56:41.110Z,16.30
2018-09-21T15:59:09.572Z,16.20
2018-09-21T16:01:38.053Z,16.00
2018-09-21T16:04:06.546Z,16.00
2018-09-21T16:06:35.221Z,15.90
2018-09-21T16:09:06.394Z,15.80
2018-09-21T16:11:35.353Z,15.80
2018-09-21T16:14:03.842Z,15.80
2018-09-21T16:16:32.324Z,15.90
2018-09-21T16:19:01.043Z,15.90
2018-09-21T16:21:29.453Z,15.90
2018-09-21T16:23:57.969Z,15.90
2018-09-21T16:26:26.390Z,15.90
2018-09-21T16:28:55.053Z,15.90
2018-09-21T16:31:23.592Z,15.80
2018-09-21T16:33:52.637Z,15.70
2018-09-21T16:36:21.409Z,15.50
2018-09-21T16:38:49.985Z,15.40
2018-09-21T16:41:18.444Z,15.30
2018-09-21T16:43:47.159Z,15.30
2018-09-21T16:46:15.802Z,15.30
2018-09-21T16:48:44.256Z,15.20
2018-09-21T16:51:13.722Z,15.20
2018-09-21T16:53:42.195Z,15.10
2018-09-21T16:56:10.645Z,15.10
2018-09-21T16:58:39.087Z,15.10
2018-09-21T17:01:07.568Z,15.00
2018-09-21T17:03:35.985Z,15.00
2018-09-21T17:06:04.410Z,15.00
2018-09-21T17:08:32.923Z,14.90
2018-09-21T17:11:01.385Z,14.90
2018-09-21T17:13:29.885Z,14.90
2018-09-21T17:15:58.565Z,14.90
2018-09-21T17:18:26.985Z,14.80
2018-09-21T17:20:55.476Z,14.80
2018-09-21T17:23:23.959Z,14.80
2018-09-21T17:25:52.443Z,14.70
2018-09-21T17:28:20.878Z,14.70
2018-09-21T17:30:49.511Z,14.70
2018-09-21T17:33:17.941Z,14.70
2018-09-21T17:35:46.459Z,14.70
2018-09-21T17:38:15.261Z,14.70
2018-09-21T17:40:43.702Z,14.70
2018-09-21T17:43:12.103Z,14.60
2018-09-21T17:45:40.639Z,14.60
2018-09-21T17:48:09.170Z,14.50
2018-09-21T17:50:37.586Z,14.50
2018-09-21T17:53:06.099Z,14.40
2018-09-21T17:55:34.638Z,14.30
2018-09-21T17:58:03.080Z,14.30
2018-09-21T18:00:31.580Z,14.20
2018-09-21T18:03:00.085Z,14.20
2018-09-21T18:05:28.604Z,14.20
2018-09-21T18:07:57.160Z,14.20
2018-09-21T18:10:25.797Z,14.20
2018-09-21T18:12:54.322Z,14.10
2018-09-21T18:15:22.798Z,14.10
2018-09-21T18:17:51.223Z,14.00
2018-09-21T18:20:19.630Z,14.00
2018-09-21T18:22:48.145Z,14.00
2018-09-21T18:25:16.582Z,14.00
2018-09-21T18:27:45.114Z,14.00
2018-09-21T18:30:13.601Z,14.10
2018-09-21T18:32:42.132Z,14.00
2018-09-21T18:35:10.603Z,14.00
2018-09-21T18:37:39.155Z,14.00
2018-09-21T18:40:08.233Z,14.00
2018-09-21T18:42:36.706Z,14.00
2018-09-21T18:45:05.256Z,14.00
2018-09-21T18:47:33.704Z,14.00
2018-09-21T18:50:02.219Z,13.90
2018-09-21T18:52:30.730Z,13.90
2018-09-21T18:54:59.192Z,13.80
2018-09-21T18:57:27.689Z,13.80
2018-09-21T19:00:07.652Z,13.80
2018-09-21T19:02:36.354Z,13.70
2018-09-21T19:05:04.757Z,13.70
2018-09-21T19:07:33.422Z,13.60
2018-09-21T19:10:01.877Z,13.60
2018-09-21T19:12:30.325Z,13.50
2018-09-21T19:14:58.830Z,13.50
2018-09-21T19:17:27.217Z,13.50
2018-09-21T19:19:55.658Z,13.40
2018-09-21T19:22:24.199Z,13.40
2018-09-21T19:24:52.621Z,13.40
2018-09-21T19:27:21.878Z,13.30
2018-09-21T19:29:50.512Z,13.30
2018-09-21T19:32:19.008Z,13.30
2018-09-21T19:34:47.726Z,13.30
2018-09-21T19:37:16.337Z,13.30
2018-09-21T19:39:45.737Z,13.30
2018-09-21T19:42:14.120Z,13.20
2018-09-21T19:44:42.725Z,13.20
2018-09-21T19:47:11.265Z,13.20
2018-09-21T19:49:39.844Z,13.10
2018-09-21T19:52:08.939Z,13.10
2018-09-21T19:54:37.964Z,13.00
2018-09-21T19:57:07.500Z,12.90
2018-09-21T19:59:40.442Z,12.80
2018-09-21T20:02:09.114Z,12.70
2018-09-21T20:04:37.946Z,12.60
2018-09-21T20:07:07.107Z,12.60
2018-09-21T20:09:36.683Z,12.60
2018-09-21T20:12:05.213Z,12.50
2018-09-21T20:14:33.844Z,12.40
2018-09-21T20:17:02.320Z,12.40
2018-09-21T20:19:30.755Z,12.30
2018-09-21T20:21:59.231Z,12.30
2018-09-21T20:24:27.645Z,12.20
2018-09-21T20:26:56.090Z,12.10
2018-09-21T20:29:24.573Z,12.00
2018-09-21T20:31:58.336Z,11.90
2018-09-21T20:34:26.970Z,11.90
2018-09-21T20:36:55.394Z,11.80
2018-09-21T20:39:23.861Z,11.80
2018-09-21T20:41:59.014Z,11.80
2018-09-21T20:44:27.438Z,11.70
2018-09-21T20:46:55.865Z,11.70
2018-09-21T20:49:24.447Z,11.60
2018-09-21T20:51:52.966Z,11.50
2018-09-21T20:54:21.349Z,11.50
2018-09-21T20:56:50.377Z,11.40
2018-09-21T20:59:18.984Z,11.30
2018-09-21T21:01:47.381Z,11.30
2018-09-21T21:04:15.964Z,11.30
2018-09-21T21:06:44.452Z,11.20
2018-09-21T21:09:12.962Z,11.20
2018-09-21T21:11:41.465Z,11.10
2018-09-21T21:14:09.889Z,11.10
2018-09-21T21:16:38.378Z,11.10
2018-09-21T21:19:07.031Z,11.00
2018-09-21T21:21:35.570Z,11.00
2018-09-21T21:24:03.986Z,11.00
2018-09-21T21:26:32.509Z,11.00
2018-09-21T21:29:01.054Z,10.90
2018-09-21T21:31:29.463Z,10.90
2018-09-21T21:33:57.971Z,10.90
2018-09-21T21:36:26.497Z,10.90
2018-09-21T21:38:55.062Z,10.80
2018-09-21T21:41:23.488Z,10.80
2018-09-21T21:43:51.905Z,10.80
2018-09-21T21:46:20.937Z,10.70
2018-09-21T21:48:49.388Z,10.70
2018-09-21T21:51:17.817Z,10.70
2018-09-21T21:53:46.225Z,10.70
2018-09-21T21:56:14.729Z,10.70
2018-09-21T21:58:43.147Z,10.60
2018-09-21T22:01:17.142Z,10.60
2018-09-21T22:03:45.541Z,10.50
2018-09-21T22:06:14.022Z,10.40
2018-09-21T22:08:42.510Z,10.40
2018-09-21T22:11:16.277Z,10.40
2018-09-21T22:13:50.108Z,10.30
2018-09-21T22:16:18.526Z,10.30
2018-09-21T22:18:46.958Z,10.30
2018-09-21T22:21:15.443Z,10.30
2018-09-21T22:23:43.863Z,10.30
2018-09-21T22:26:12.281Z,10.30
2018-09-21T22:28:40.699Z,10.30
2018-09-21T22:31:09.132Z,10.30
2018-09-21T22:33:37.565Z,10.30
2018-09-21T22:36:06.295Z,10.20
2018-09-21T22:38:34.728Z,10.20
2018-09-21T22:41:03.244Z,10.20
2018-09-21T22:43:31.726Z,10.20
2018-09-21T22:46:00.113Z,10.20
2018-09-21T22:48:28.582Z,10.10
2018-09-21T22:51:03.677Z,10.20
2018-09-21T22:53:32.105Z,10.20
2018-09-21T22:56:00.533Z,10.10
2018-09-21T22:58:29.002Z,10.10
2018-09-21T23:00:57.449Z,10.10
2018-09-21T23:03:25.839Z,10.10
2018-09-21T23:05:54.308Z,10.10
2018-09-21T23:08:22.787Z,10.10
2018-09-21T23:10:52.152Z,10.10
2018-09-21T23:13:20.618Z,10.10
2018-09-21T23:15:48.997Z,10.10
2018-09-21T23:18:17.438Z,10.10
2018-09-21T23:20:45.910Z,10.10
2018-09-21T23:23:14.320Z,10.10
2018-09-21T23:25:42.778Z,10.20
2018-09-21T23:28:11.450Z,10.20
2018-09-21T23:30:39.871Z,10.20
2018-09-21T23:33:08.301Z,10.10
2018-09-21T23:35:36.782Z,10.20
2018-09-21T23:38:05.301Z,10.20
2018-09-21T23:40:33.698Z,10.20
2018-09-21T23:43:02.176Z,10.20
2018-09-21T23:45:30.598Z,10.20
2018-09-21T23:47:59.002Z,10.30
2018-09-21T23:50:27.501Z,10.30
2018-09-21T23:52:55.905Z,10.30
2018-09-21T23:55:24.301Z,10.40
2018-09-21T23:57:52.730Z,10.40
